Time;durP1;ratioP1;P1;durP2;ratioP2;P2;SDS_P1;SDS_P2;PMS_P1;PMS_P2;Temp;Humidity;BMP_temperature;BMP_pressure;BME280_temperature;BME280_humidity;BME280_pressure;Samples;Min_cycle;Max_cycle;Signal;HPM_P1;HPM_P2
2021/01/02 00:00:50;;;;;;;87.93;36.80;;;;;;;4.58;100.00;102005.47;5094389;28;20171;-74
2021/01/02 00:03:35;;;;;;;83.07;34.63;;;;;;;4.54;100.00;102007.28;5094418;28;20189;-75
2021/01/02 00:06:08;;;;;;;76.80;33.40;;;;;;;4.57;100.00;101998.56;5094329;28;20409;-76
2021/01/02 00:08:37;;;;;;;77.23;35.37;;;;;;;4.56;100.00;102009.88;5094225;28;20828;-76
2021/01/02 00:11:03;;;;;;;75.80;31.80;;;;;;;4.56;100.00;102015.91;5094026;28;20401;-76
2021/01/02 00:13:54;;;;;;;78.90;32.37;;;;;;;4.48;100.00;102019.56;5064474;28;20426;-76
2021/01/02 00:16:56;;;;;;;75.03;30.10;;;;;;;4.40;100.00;102033.59;5073799;28;20168;-76
2021/01/02 00:19:50;;;;;;;76.30;30.70;;;;;;;4.42;100.00;102030.97;5055964;28;20991;-74
2021/01/02 00:22:52;;;;;;;77.97;34.23;;;;;;;4.55;100.00;102032.44;5073573;28;20426;-76
2021/01/02 00:25:21;;;;;;;71.33;27.33;;;;;;;4.52;100.00;102032.47;5073437;28;20453;-76
2021/01/02 00:27:53;;;;;;;70.83;27.33;;;;;;;4.45;100.00;102033.50;5072558;28;20453;-75
2021/01/02 00:30:49;;;;;;;73.90;29.37;;;;;;;4.38;100.00;102043.19;5073693;28;20425;-73
2021/01/02 00:33:19;;;;;;;77.80;30.13;;;;;;;4.25;100.00;102036.50;5073344;28;20897;-73
2021/01/02 00:35:49;;;;;;;75.40;28.97;;;;;;;4.22;100.00;102031.34;5073674;28;20435;-75
2021/01/02 00:38:16;;;;;;;74.33;28.57;;;;;;;4.36;100.00;102038.88;5055463;28;20471;-75
2021/01/02 00:40:42;;;;;;;71.60;28.27;;;;;;;4.30;100.00;102041.59;5073229;28;20472;-75
2021/01/02 00:43:08;;;;;;;67.03;26.87;;;;;;;4.18;100.00;102040.97;5073353;28;20406;-76
2021/01/02 00:45:35;;;;;;;70.10;27.20;;;;;;;4.26;100.00;102032.16;5073509;28;20683;-77
2021/01/02 00:48:04;;;;;;;67.83;23.97;;;;;;;4.27;100.00;102044.28;5073025;28;20956;-77
2021/01/02 00:50:31;;;;;;;66.20;25.07;;;;;;;4.14;100.00;102043.63;5073167;28;20460;-76
2021/01/02 00:53:17;;;;;;;68.47;26.63;;;;;;;4.18;100.00;102048.78;5073315;28;20402;-76
2021/01/02 00:55:53;;;;;;;66.80;26.40;;;;;;;4.06;100.00;102043.78;5055215;28;20418;-76
2021/01/02 00:58:57;;;;;;;65.93;28.70;;;;;;;4.10;100.00;102032.44;5072937;28;20410;-77
2021/01/02 01:01:54;;;;;;;76.80;28.97;;;;;;;4.13;100.00;102037.59;5011312;28;20417;-74
2021/01/02 01:04:31;;;;;;;68.27;30.60;;;;;;;4.08;100.00;102046.34;5036949;28;20410;-75
2021/01/02 01:06:59;;;;;;;72.43;29.63;;;;;;;4.01;100.00;102042.19;5072731;28;20410;-74
2021/01/02 01:09:26;;;;;;;61.30;30.67;;;;;;;4.05;100.00;102041.22;5073005;28;20414;-74
2021/01/02 01:11:54;;;;;;;64.80;28.30;;;;;;;4.00;100.00;102049.09;5072748;28;20427;-74
2021/01/02 01:14:21;;;;;;;64.53;25.33;;;;;;;3.99;100.00;102052.59;5072471;28;20489;-75
2021/01/02 01:16:51;;;;;;;65.50;34.60;;;;;;;4.06;100.00;102061.13;5072847;28;20414;-76
2021/01/02 01:19:20;;;;;;;66.60;33.13;;;;;;;4.03;100.00;102059.47;5072465;28;20406;-78
2021/01/02 01:21:51;;;;;;;57.77;27.17;;;;;;;3.94;100.00;102062.22;5072545;28;20410;-75
2021/01/02 01:24:51;;;;;;;62.33;31.40;;;;;;;4.03;100.00;102069.00;5072568;28;20418;-76
2021/01/02 01:27:54;;;;;;;65.13;31.80;;;;;;;4.05;100.00;102070.69;5063906;28;20422;-74
2021/01/02 01:30:23;;;;;;;63.23;26.33;;;;;;;4.07;100.00;102078.44;5072727;28;20427;-75
2021/01/02 01:33:12;;;;;;;65.97;26.10;;;;;;;4.01;100.00;102075.97;5072674;28;20816;-76
2021/01/02 01:35:43;;;;;;;63.57;27.03;;;;;;;3.97;100.00;102080.34;5072330;28;20472;-76
2021/01/02 01:38:16;;;;;;;63.60;31.83;;;;;;;3.95;100.00;102074.34;5072278;28;20494;-75
2021/01/02 01:40:43;;;;;;;61.83;28.37;;;;;;;3.95;100.00;102073.47;5072102;28;20402;-77
2021/01/02 01:43:46;;;;;;;66.43;27.60;;;;;;;4.05;100.00;102080.22;5072171;28;20402;-74
2021/01/02 01:46:14;;;;;;;63.47;27.17;;;;;;;4.01;100.00;102087.25;5068731;28;20414;-76
2021/01/02 01:49:04;;;;;;;62.30;25.23;;;;;;;3.99;100.00;102088.13;5072011;28;20434;-76
2021/01/02 01:51:39;;;;;;;58.30;27.70;;;;;;;3.97;100.00;102087.31;5072173;28;20406;-75
2021/01/02 01:54:52;;;;;;;60.93;28.17;;;;;;;3.95;100.00;102091.69;5072033;28;20426;-77
2021/01/02 01:57:25;;;;;;;60.40;25.13;;;;;;;3.97;100.00;102089.91;5071989;28;20424;-73
2021/01/02 01:59:57;;;;;;;56.80;25.03;;;;;;;3.86;100.00;102097.91;5072144;28;20395;-74
2021/01/02 02:02:45;;;;;;;61.17;25.40;;;;;;;3.73;100.00;102099.84;5071621;28;20391;-75
2021/01/02 02:05:22;;;;;;;56.87;26.67;;;;;;;3.80;100.00;102100.59;5063425;28;20419;-74
2021/01/02 02:08:14;;;;;;;62.30;22.90;;;;;;;3.89;100.00;102090.91;5071433;28;20438;-76
2021/01/02 02:10:47;;;;;;;58.30;23.87;;;;;;;3.93;100.00;102094.31;5068607;28;20426;-75
2021/01/02 02:13:13;;;;;;;59.37;21.90;;;;;;;3.88;100.00;102093.53;5071712;28;21196;-75
2021/01/02 02:15:49;;;;;;;54.50;24.37;;;;;;;3.94;100.00;102103.81;5071567;28;20923;-75
2021/01/02 02:18:21;;;;;;;63.73;25.63;;;;;;;4.03;100.00;102087.19;5071578;28;20251;-75
2021/01/02 02:20:52;;;;;;;60.53;23.33;;;;;;;3.93;100.00;102096.91;5071485;28;20402;-75
2021/01/02 02:23:41;;;;;;;56.53;21.97;;;;;;;3.91;100.00;102098.66;5071425;28;20784;-74
2021/01/02 02:26:15;;;;;;;58.03;24.40;;;;;;;3.85;100.00;102101.34;5061542;28;20474;-75
2021/01/02 02:28:53;;;;;;;60.43;23.97;;;;;;;3.90;100.00;102097.81;5071491;28;20461;-74
2021/01/02 02:31:20;;;;;;;58.30;20.90;;;;;;;3.90;100.00;102096.94;5071310;28;20445;-74
2021/01/02 02:33:57;;;;;;;59.57;24.73;;;;;;;3.75;100.00;102102.41;5053431;28;20920;-74
2021/01/02 02:36:24;;;;;;;57.13;22.33;;;;;;;3.74;100.00;102095.50;5071124;28;20399;-76
2021/01/02 02:38:52;;;;;;;57.20;23.33;;;;;;;3.88;100.00;102096.13;5071405;28;20923;-73
2021/01/02 02:41:22;;;;;;;54.27;22.60;;;;;;;3.80;100.00;102100.59;5053623;28;20986;-76
2021/01/02 02:43:52;;;;;;;60.80;22.70;;;;;;;3.78;100.00;102091.94;5071149;28;20406;-75
2021/01/02 02:46:20;;;;;;;59.00;23.13;;;;;;;3.70;100.00;102089.47;5071334;28;20398;-75
2021/01/02 02:48:48;;;;;;;58.20;23.40;;;;;;;3.71;100.00;102093.81;5071366;28;20956;-77
2021/01/02 02:51:16;;;;;;;53.90;22.13;;;;;;;3.85;100.00;102088.34;5052807;28;20846;-75
2021/01/02 02:53:42;;;;;;;62.10;23.50;;;;;;;3.73;100.00;102093.78;5071154;28;20435;-76
2021/01/02 02:56:08;;;;;;;62.10;24.23;;;;;;;3.76;100.00;102089.38;5071183;28;20402;-76
2021/01/02 02:58:33;;;;;;;63.10;21.90;;;;;;;3.88;100.00;102088.31;5071067;28;20867;-76
2021/01/02 03:00:58;;;;;;;61.73;24.50;;;;;;;3.70;100.00;102083.41;5069738;28;20179;-74
2021/01/02 03:03:26;;;;;;;56.70;23.57;;;;;;;3.62;100.00;102088.75;5071390;28;20164;-75
2021/01/02 03:05:56;;;;;;;63.93;23.70;;;;;;;3.56;100.00;102083.66;5071072;28;20541;-76
2021/01/02 03:08:23;;;;;;;68.23;25.87;;;;;;;3.59;100.00;102086.22;5053070;28;20964;-76
2021/01/02 03:10:48;;;;;;;60.00;25.80;;;;;;;3.51;100.00;102075.94;5070949;28;20410;-76
2021/01/02 03:13:14;;;;;;;62.27;25.00;;;;;;;3.59;100.00;102089.66;5070780;28;20402;-76
2021/01/02 03:15:43;;;;;;;60.53;23.63;;;;;;;3.70;100.00;102086.88;5071087;28;20402;-74
2021/01/02 03:18:09;;;;;;;67.67;25.50;;;;;;;3.75;100.00;102081.63;5071017;28;20764;-77
2021/01/02 03:20:35;;;;;;;58.63;21.80;;;;;;;3.77;100.00;102078.09;5070714;28;20518;-75
2021/01/02 03:23:00;;;;;;;65.83;25.23;;;;;;;3.75;100.00;102081.63;5070699;28;21027;-75
2021/01/02 03:25:26;;;;;;;63.30;22.20;;;;;;;3.66;100.00;102086.97;5070936;28;20211;-75
2021/01/02 03:27:53;;;;;;;65.10;23.90;;;;;;;3.62;100.00;102091.34;5070539;28;20200;-75
2021/01/02 03:30:19;;;;;;;59.80;23.30;;;;;;;3.49;100.00;102093.28;5071041;28;20293;-75
2021/01/02 03:32:45;;;;;;;60.00;23.03;;;;;;;3.41;100.00;102095.16;5070916;28;20489;-75
2021/01/02 03:35:12;;;;;;;55.93;20.27;;;;;;;3.35;100.00;102097.84;5070841;28;20509;-76
2021/01/02 03:37:40;;;;;;;55.90;21.80;;;;;;;3.32;100.00;102095.28;5070972;28;20224;-75
2021/01/02 03:40:08;;;;;;;58.87;22.27;;;;;;;3.29;100.00;102088.38;5070683;28;20398;-76
2021/01/02 03:42:37;;;;;;;57.00;21.33;;;;;;;3.37;100.00;102097.81;5070633;28;20426;-75
2021/01/02 03:45:04;;;;;;;54.10;20.17;;;;;;;3.33;100.00;102094.41;5070574;28;20796;-76
2021/01/02 03:47:30;;;;;;;56.27;20.47;;;;;;;3.22;100.00;102093.69;5070750;28;20544;-75
2021/01/02 03:49:55;;;;;;;60.03;22.00;;;;;;;3.26;100.00;102106.63;5070475;28;20489;-75
2021/01/02 03:52:21;;;;;;;56.27;19.20;;;;;;;3.31;100.00;102103.94;5070505;28;20247;-74
2021/01/02 03:54:46;;;;;;;61.73;25.87;;;;;;;3.30;100.00;102116.06;5070710;28;20168;-76
2021/01/02 03:57:12;;;;;;;60.40;22.33;;;;;;;3.30;100.00;102108.28;5070534;28;20264;-75
2021/01/02 03:59:37;;;;;;;58.43;21.50;;;;;;;3.22;100.00;102106.69;5069170;28;20187;-76
2021/01/02 04:02:03;;;;;;;61.60;23.30;;;;;;;3.26;100.00;102114.41;5070717;28;20694;-74
2021/01/02 04:04:28;;;;;;;59.03;21.63;;;;;;;3.32;100.00;102110.84;5073712;28;20168;-77
2021/01/02 04:06:54;;;;;;;57.60;22.20;;;;;;;3.39;100.00;102114.22;5073921;28;20234;-75
2021/01/02 04:09:20;;;;;;;55.17;20.90;;;;;;;3.34;100.00;102114.31;5055908;28;20230;-73
2021/01/02 04:11:46;;;;;;;58.07;24.17;;;;;;;3.25;100.00;102117.00;5074148;28;20187;-76
2021/01/02 04:14:13;;;;;;;60.23;22.23;;;;;;;3.33;100.00;102115.19;5074051;28;20766;-76
2021/01/02 04:16:40;;;;;;;57.03;20.30;;;;;;;3.37;100.00;102124.63;5074171;28;20833;-75
2021/01/02 04:19:07;;;;;;;57.73;21.40;;;;;;;3.38;100.00;102123.75;5073981;28;20930;-74
2021/01/02 04:21:36;;;;;;;55.60;20.77;;;;;;;3.24;100.00;102134.34;5073613;28;20484;-78
2021/01/02 04:24:03;;;;;;;55.90;21.77;;;;;;;3.24;100.00;102133.47;5073865;28;20501;-76
2021/01/02 04:26:28;;;;;;;54.83;20.47;;;;;;;3.16;100.00;102143.09;5073549;28;20473;-76
2021/01/02 04:28:55;;;;;;;61.63;22.20;;;;;;;3.16;100.00;102143.09;5073440;28;20964;-74
2021/01/02 04:31:41;;;;;;;64.57;23.53;;;;;;;3.04;100.00;102133.75;5073477;28;20631;-73
2021/01/02 04:34:08;;;;;;;64.30;23.27;;;;;;;3.15;100.00;102137.06;5072902;28;20426;-74
2021/01/02 04:36:36;;;;;;;59.00;25.27;;;;;;;3.15;100.00;102151.78;5055481;28;20513;-74
2021/01/02 04:39:04;;;;;;;65.87;26.70;;;;;;;3.08;100.00;102152.75;5055523;28;20419;-74
2021/01/02 04:41:30;;;;;;;66.13;27.33;;;;;;;3.04;100.00;102154.53;5073154;28;20414;-74
2021/01/02 04:43:55;;;;;;;67.50;27.10;;;;;;;3.12;100.00;102149.25;5055573;28;20835;-75
2021/01/02 04:46:24;;;;;;;68.97;28.20;;;;;;;3.10;100.00;102151.88;5073389;28;20409;-73
2021/01/02 04:48:50;;;;;;;72.23;30.70;;;;;;;3.11;100.00;102144.94;5073016;28;20188;-76
2021/01/02 04:51:17;;;;;;;71.50;30.57;;;;;;;3.11;100.00;102145.78;5073283;28;20417;-76
2021/01/02 04:53:43;;;;;;;68.17;29.00;;;;;;;3.19;100.00;102146.53;5073253;28;20615;-75
2021/01/02 04:56:09;;;;;;;65.77;28.43;;;;;;;3.10;100.00;102145.78;5073129;28;20395;-75
2021/01/02 04:58:43;;;;;;;73.40;30.37;;;;;;;3.12;100.00;102149.25;5073024;28;20851;-76
2021/01/02 05:01:12;;;;;;;70.33;38.10;;;;;;;3.26;100.00;102144.72;5073119;28;20398;-74
2021/01/02 05:03:44;;;;;;;67.67;35.00;;;;;;;3.28;100.00;102148.16;5072853;28;20768;-74
2021/01/02 05:06:09;;;;;;;80.57;37.27;;;;;;;3.24;100.00;102152.50;5073117;28;20395;-75
2021/01/02 05:08:35;;;;;;;65.40;30.57;;;;;;;3.19;100.00;102156.06;5072772;28;20477;-75
2021/01/02 05:11:02;;;;;;;73.80;32.50;;;;;;;3.16;100.00;102158.69;5072657;28;20544;-75
2021/01/02 05:13:37;;;;;;;75.17;34.27;;;;;;;3.10;100.00;102164.84;5072588;28;20528;-74
2021/01/02 05:16:18;;;;;;;67.47;30.00;;;;;;;3.04;100.00;102168.38;5072701;28;20438;-75
2021/01/02 05:19:01;;;;;;;62.70;30.40;;;;;;;2.96;100.00;102165.00;5072640;28;20413;-74
2021/01/02 05:21:28;;;;;;;63.10;29.40;;;;;;;3.03;100.00;102178.78;5072261;28;20407;-74
2021/01/02 05:24:06;;;;;;;73.23;28.37;;;;;;;2.94;100.00;102184.06;5072835;28;20399;-76
2021/01/02 05:26:33;;;;;;;69.80;31.33;;;;;;;2.98;100.00;102189.22;5051021;28;20903;-75
2021/01/02 05:29:22;;;;;;;65.03;28.90;;;;;;;2.96;100.00;102190.13;5052293;28;20451;-75
2021/01/02 05:31:53;;;;;;;66.63;27.60;;;;;;;3.12;100.00;102194.25;5052326;28;20407;-74
2021/01/02 05:34:20;;;;;;;69.17;30.00;;;;;;;3.03;100.00;102196.94;5052368;28;20407;-75
2021/01/02 05:36:57;;;;;;;61.70;29.97;;;;;;;3.08;100.00;102192.53;5052458;28;20475;-74
2021/01/02 05:39:37;;;;;;;56.67;25.10;;;;;;;3.13;100.00;102210.66;5052282;28;20391;-76
2021/01/02 05:42:03;;;;;;;67.13;28.70;;;;;;;3.09;100.00;102211.56;5052340;28;20426;-74
2021/01/02 05:44:33;;;;;;;59.10;27.20;;;;;;;3.02;100.00;102214.25;5052084;28;20431;-73
2021/01/02 05:46:59;;;;;;;60.70;24.70;;;;;;;3.12;100.00;102211.56;5050877;28;20914;-76
2021/01/02 05:49:32;;;;;;;57.30;26.70;;;;;;;3.24;100.00;102209.63;5052099;28;20450;-75
2021/01/02 05:51:59;;;;;;;57.47;27.47;;;;;;;3.19;100.00;102205.41;5051971;28;20403;-75
2021/01/02 05:54:28;;;;;;;56.93;24.27;;;;;;;3.10;100.00;102216.78;5051947;28;20407;-75
2021/01/02 05:57:04;;;;;;;52.60;22.93;;;;;;;3.10;100.00;102218.47;5051950;28;20481;-75
2021/01/02 05:59:33;;;;;;;56.17;21.97;;;;;;;3.18;100.00;102214.09;5051805;28;20399;-72
2021/01/02 06:02:20;;;;;;;63.17;24.67;;;;;;;3.21;100.00;102225.28;5051837;28;20403;-75
2021/01/02 06:05:00;;;;;;;53.33;21.87;;;;;;;3.24;100.00;102222.63;5051663;28;20410;-74
2021/01/02 06:07:29;;;;;;;49.67;18.30;;;;;;;3.31;100.00;102236.41;5051539;28;20940;-76
2021/01/02 06:09:55;;;;;;;57.20;21.77;;;;;;;3.30;100.00;102234.69;5050277;28;20443;-76
2021/01/02 06:12:34;;;;;;;62.13;24.27;;;;;;;3.32;100.00;102232.91;5051618;28;20403;-76
2021/01/02 06:15:10;;;;;;;57.57;22.80;;;;;;;3.43;100.00;102230.19;5051705;28;20920;-75
2021/01/02 06:17:37;;;;;;;57.47;23.60;;;;;;;3.44;100.00;102237.97;5051507;28;20411;-74
2021/01/02 06:20:08;;;;;;;58.90;26.10;;;;;;;3.40;100.00;102232.81;5051874;28;20400;-75
2021/01/02 06:22:35;;;;;;;58.43;24.03;;;;;;;3.55;100.00;102232.63;5051108;28;20432;-75
2021/01/02 06:25:04;;;;;;;55.90;24.90;;;;;;;3.58;100.00;102238.66;5051965;28;20909;-75
2021/01/02 06:27:29;;;;;;;63.80;29.13;;;;;;;3.70;100.00;102236.75;5071215;28;20907;-75
2021/01/02 06:29:57;;;;;;;60.53;29.17;;;;;;;3.68;100.00;102244.56;5071482;28;20394;-76
2021/01/02 06:32:24;;;;;;;61.50;23.13;;;;;;;3.84;100.00;102240.00;5071703;28;20156;-75
2021/01/02 06:35:07;;;;;;;61.13;25.70;;;;;;;3.84;100.00;102238.28;5071201;28;20398;-73
2021/01/02 06:37:46;;;;;;;65.10;27.90;;;;;;;3.91;100.00;102241.66;5071297;28;20948;-74
2021/01/02 06:40:29;;;;;;;67.97;29.03;;;;;;;4.03;100.00;102241.47;5071341;28;20403;-76
2021/01/02 06:42:59;;;;;;;66.30;26.10;;;;;;;4.07;100.00;102255.28;5071280;28;20905;-74
2021/01/02 06:45:37;;;;;;;65.70;27.50;;;;;;;4.21;100.00;102250.72;5071209;28;20433;-75
2021/01/02 06:48:23;;;;;;;75.10;28.47;;;;;;;4.30;100.00;102253.16;5071166;28;20924;-75
2021/01/02 06:50:53;;;;;;;74.10;27.13;;;;;;;4.37;100.00;102251.31;5053274;28;20418;-76
2021/01/02 06:53:23;;;;;;;63.73;25.90;;;;;;;4.44;100.00;102252.94;5071233;28;20944;-77
2021/01/02 06:56:11;;;;;;;65.53;24.23;;;;;;;4.42;100.00;102258.19;5071336;28;20958;-76
2021/01/02 06:58:44;;;;;;;67.70;24.93;;;;;;;4.44;100.00;102256.41;5071061;28;20445;-75
2021/01/02 07:01:15;;;;;;;65.77;25.87;;;;;;;4.65;100.00;102262.13;5071043;28;20399;-76
2021/01/02 07:03:41;;;;;;;61.60;26.00;;;;;;;4.77;100.00;102267.13;5070944;28;20398;-75
2021/01/02 07:06:22;;;;;;;65.57;24.70;;;;;;;4.95;100.00;102273.75;5053041;28;20413;-76
2021/01/02 07:09:11;;;;;;;64.33;23.93;;;;;;;5.06;100.00;102263.09;5070768;28;20183;-77
2021/01/02 07:11:43;;;;;;;69.57;25.13;;;;;;;5.17;100.00;102267.22;5052954;28;20422;-77
2021/01/02 07:14:08;;;;;;;65.50;23.70;;;;;;;5.26;100.00;102269.66;5070911;28;20395;-76
2021/01/02 07:16:42;;;;;;;75.50;29.50;;;;;;;5.32;100.00;102273.88;5070896;28;20767;-76
2021/01/02 07:19:31;;;;;;;80.90;32.30;;;;;;;5.45;100.00;102288.41;5071116;28;20172;-76
2021/01/02 07:21:57;;;;;;;84.67;32.67;;;;;;;5.60;100.00;102289.81;5070837;28;20495;-77
2021/01/02 07:24:26;;;;;;;77.30;31.40;;;;;;;5.67;100.00;102281.00;5070797;28;20442;-76
2021/01/02 07:27:09;;;;;;;76.87;31.97;;;;;;;5.76;100.00;102285.13;5070546;28;20940;-77
2021/01/02 07:29:39;;;;;;;81.23;32.23;;;;;;;5.80;100.00;102287.63;5070545;28;20442;-75
2021/01/02 07:32:06;;;;;;;78.20;34.50;;;;;;;5.87;100.00;102288.34;5070577;28;20399;-75
2021/01/02 07:34:32;;;;;;;87.93;37.07;;;;;;;5.93;100.00;102285.66;5070721;28;20426;-76
2021/01/02 07:37:05;;;;;;;84.53;33.70;;;;;;;6.07;100.00;102286.19;5053735;28;20828;-75
2021/01/02 07:39:30;;;;;;;80.93;35.40;;;;;;;6.17;100.00;102289.44;5074669;28;20615;-74
2021/01/02 07:42:02;;;;;;;87.47;42.57;;;;;;;6.24;100.00;102282.31;5074262;28;20460;-75
2021/01/02 07:44:27;;;;;;;105.30;40.73;;;;;;;6.25;100.00;102287.50;5074243;28;20171;-75
2021/01/02 07:46:53;;;;;;;90.60;42.87;;;;;;;6.33;100.00;102290.78;5074177;28;20403;-75
2021/01/02 07:49:19;;;;;;;101.37;46.20;;;;;;;6.42;100.00;102291.47;5074200;28;20195;-75
2021/01/02 07:51:48;;;;;;;103.67;48.77;;;;;;;6.79;100.00;102294.88;5074385;28;20172;-74
2021/01/02 07:54:27;;;;;;;105.30;46.23;;;;;;;7.15;100.00;102294.78;5074187;28;20164;-75
2021/01/02 07:56:52;;;;;;;110.03;51.57;;;;;;;7.37;100.00;102293.31;5074090;28;20841;-76
2021/01/02 07:59:25;;;;;;;98.93;46.00;;;;;;;7.48;100.00;102286.03;5073864;28;20831;-77
2021/01/02 08:01:56;;;;;;;97.47;46.90;;;;;;;7.51;100.00;102288.53;5074102;28;20641;-76
2021/01/02 08:04:22;;;;;;;102.87;48.80;;;;;;;7.57;100.00;102291.88;5074426;28;20760;-76
2021/01/02 08:06:56;;;;;;;91.20;45.80;;;;;;;7.56;100.00;102295.38;5073925;28;20402;-74
2021/01/02 08:09:22;;;;;;;87.20;41.80;;;;;;;7.58;100.00;102299.69;5073937;28;20500;-76
2021/01/02 08:11:58;;;;;;;88.17;39.93;;;;;;;7.62;100.00;102301.28;5073821;28;20406;-75
2021/01/02 08:14:25;;;;;;;79.80;34.27;;;;;;;7.65;100.00;102300.34;5073663;28;20391;-75
2021/01/02 08:17:02;;;;;;;78.47;31.73;;;;;;;7.73;100.00;102291.38;5073833;28;20464;-77
2021/01/02 08:19:29;;;;;;;65.53;26.90;;;;;;;7.89;100.00;102296.16;5073497;28;20418;-75
2021/01/02 08:21:55;;;;;;;62.90;23.90;;;;;;;8.05;100.00;102292.16;5073567;28;20415;-76
2021/01/02 08:24:21;;;;;;;54.00;20.63;;;;;;;8.19;100.00;102300.44;5073598;28;20406;-74
2021/01/02 08:26:47;;;;;;;52.20;20.50;;;;;;;8.36;100.00;102305.16;5073212;28;20254;-75
2021/01/02 08:29:14;;;;;;;48.90;17.47;;;;;;;8.53;100.00;102307.22;5073274;28;20298;-76
2021/01/02 08:31:47;;;;;;;52.50;18.90;;;;;;;8.43;100.00;102311.91;5073343;28;20410;-73
2021/01/02 08:34:21;;;;;;;53.80;19.80;;;;;;;8.32;100.00;102309.63;5073054;28;20532;-75
2021/01/02 08:36:46;;;;;;;51.23;17.37;;;;;;;8.21;100.00;102311.72;5073248;28;20399;-76
2021/01/02 08:39:18;;;;;;;54.17;18.10;;;;;;;8.24;100.00;102327.34;5073322;28;20414;-75
2021/01/02 08:41:57;;;;;;;51.17;18.20;;;;;;;8.19;100.00;102321.38;5073184;28;20180;-77
2021/01/02 08:44:25;;;;;;;52.57;21.50;;;;;;;8.36;100.00;102318.25;5073177;28;20410;-76
2021/01/02 08:46:51;;;;;;;54.77;20.40;;;;;;;8.55;100.00;102322.00;5072790;28;20403;-73
2021/01/02 08:49:36;;;;;;;54.27;20.70;;;;;;;9.00;100.00;102321.38;5072757;28;20478;-75
2021/01/02 08:52:21;;;;;;;51.20;18.47;;;;;;;9.25;100.00;102315.25;5072742;28;20421;-75
2021/01/02 08:54:50;;;;;;;51.13;17.40;;;;;;;9.56;100.00;102321.09;5073347;28;20402;-76
2021/01/02 08:57:29;;;;;;;55.80;18.50;;;;;;;9.86;100.00;102310.34;5072345;28;20494;-74
2021/01/02 09:00:10;;;;;;;50.47;15.33;;;;;;;10.40;100.00;102311.75;5072683;28;20418;-75
2021/01/02 09:02:37;;;;;;;55.03;17.70;;;;;;;10.73;100.00;102304.22;5072565;28;20737;-75
2021/01/02 09:05:08;;;;;;;58.17;18.70;;;;;;;10.99;100.00;102295.25;5072763;28;20495;-76
2021/01/02 09:07:33;;;;;;;52.20;14.70;;;;;;;10.97;100.00;102300.56;5072710;28;20921;-77
2021/01/02 09:10:45;;;;;;;56.00;13.80;;;;;;;11.00;100.00;102291.69;5071126;28;20479;-76
2021/01/02 09:13:16;;;;;;;49.13;13.87;;;;;;;10.72;100.00;102290.22;5044213;28;20191;-76
2021/01/02 09:15:45;;;;;;;50.17;13.90;;;;;;;10.92;100.00;102292.00;5072196;28;20399;-76
2021/01/02 09:18:12;;;;;;;50.40;14.37;;;;;;;11.11;100.00;102284.19;5072906;28;20900;-75
2021/01/02 09:20:38;;;;;;;54.33;14.00;;;;;;;11.43;100.00;102288.00;5072546;28;20464;-78
2021/01/02 09:23:04;;;;;;;57.40;16.27;;;;;;;11.70;100.00;102283.25;5072710;28;20960;-76
2021/01/02 09:25:31;;;;;;;58.80;16.33;;;;;;;12.06;100.00;102269.28;5072374;28;20523;-77
2021/01/02 09:28:10;;;;;;;50.77;12.90;;;;;;;11.87;100.00;102264.91;5071792;28;20192;-75
2021/01/02 09:30:35;;;;;;;51.47;14.03;;;;;;;11.69;100.00;102271.00;5072123;28;20390;-77
2021/01/02 09:33:01;;;;;;;51.67;14.70;;;;;;;11.83;100.00;102273.88;5072016;28;20395;-76
2021/01/02 09:35:26;;;;;;;54.17;14.03;;;;;;;11.76;100.00;102277.69;5071651;28;20168;-76
2021/01/02 09:37:52;;;;;;;52.67;14.00;;;;;;;11.77;100.00;102268.84;5071870;28;20165;-76
2021/01/02 09:40:20;;;;;;;50.47;13.57;;;;;;;11.65;100.00;102270.31;5071413;28;20160;-76
2021/01/02 09:42:46;;;;;;;52.40;13.17;;;;;;;11.46;100.00;102268.59;5071915;28;20177;-76
2021/01/02 09:45:13;;;;;;;52.00;12.10;;;;;;;11.45;100.00;102267.72;5071543;28;20426;-76
2021/01/02 09:47:38;;;;;;;51.17;13.87;;;;;;;11.57;100.00;102259.28;5071660;28;20403;-75
2021/01/02 09:50:05;;;;;;;50.77;13.10;;;;;;;11.74;100.00;102252.38;5071643;28;20452;-74
2021/01/02 09:52:31;;;;;;;51.20;11.33;;;;;;;11.82;100.00;102251.09;5071887;28;20666;-75
2021/01/02 09:54:56;;;;;;;55.83;12.47;;;;;;;12.14;100.00;102248.69;5071716;28;20399;-76
2021/01/02 09:57:22;;;;;;;54.43;11.97;;;;;;;12.30;100.00;102243.53;5071231;28;20192;-76
2021/01/02 09:59:47;;;;;;;50.30;12.33;;;;;;;12.62;100.00;102240.13;5071436;28;20168;-76
2021/01/02 10:02:13;;;;;;;47.83;11.30;;;;;;;12.94;100.00;102235.81;5071363;28;20230;-76
2021/01/02 10:04:46;;;;;;;48.13;11.60;;;;;;;13.19;100.00;102219.53;5071414;28;20697;-74
2021/01/02 10:07:13;;;;;;;48.90;10.17;;;;;;;13.23;100.00;102218.47;5053482;28;20230;-75
2021/01/02 10:09:42;;;;;;;47.23;10.50;;;;;;;13.11;100.00;102215.59;5053416;28;20446;-77
2021/01/02 10:12:09;;;;;;;48.47;10.70;;;;;;;12.99;100.00;102212.66;5071133;28;20456;-75
2021/01/02 10:14:36;;;;;;;52.90;10.60;;;;;;;13.43;100.00;102204.16;5071001;28;20403;-75
2021/01/02 10:17:02;;;;;;;51.47;10.53;;;;;;;13.60;100.00;102193.53;5053677;28;20480;-76
2021/01/02 10:19:27;;;;;;;52.83;11.43;;;;;;;13.45;100.00;102199.66;5071021;28;20440;-76
2021/01/02 10:21:53;;;;;;;49.97;10.73;;;;;;;12.98;100.00;102196.91;5071046;28;20442;-76
2021/01/02 10:24:19;;;;;;;50.30;10.90;;;;;;;12.65;100.00;102197.78;5071304;28;20190;-77
2021/01/02 10:26:44;;;;;;;49.87;11.40;;;;;;;12.32;100.00;102197.72;5070806;28;20691;-75
2021/01/02 10:29:10;;;;;;;52.33;10.90;;;;;;;11.94;100.00;102199.63;5071069;28;20196;-78
2021/01/02 10:31:38;;;;;;;46.70;10.03;;;;;;;11.76;100.00;102201.31;5071358;28;20283;-76
2021/01/02 10:34:04;;;;;;;49.93;9.53;;;;;;;11.63;100.00;102202.84;5070755;28;20789;-77
2021/01/02 10:36:29;;;;;;;51.40;9.70;;;;;;;11.68;100.00;102196.44;5071038;28;20487;-75
2021/01/02 10:38:55;;;;;;;50.23;9.60;;;;;;;11.58;100.00;102202.22;5070789;28;20862;-75
2021/01/02 10:41:20;;;;;;;47.87;9.90;;;;;;;11.43;100.00;102202.94;5070621;28;20165;-77
2021/01/02 10:43:48;;;;;;;59.43;10.77;;;;;;;11.22;100.00;102199.53;5052437;28;20251;-76
2021/01/02 10:46:14;;;;;;;51.10;11.20;;;;;;;11.24;100.00;102201.16;5071100;28;20212;-75
2021/01/02 10:48:40;;;;;;;49.47;13.47;;;;;;;11.22;100.00;102203.00;5070894;28;20537;-75
2021/01/02 10:51:13;;;;;;;45.00;10.87;;;;;;;11.13;100.00;102200.78;5070907;28;20471;-77
2021/01/02 10:53:38;;;;;;;50.00;12.00;;;;;;;11.23;100.00;102196.81;5071191;28;20577;-74
2021/01/02 10:56:09;;;;;;;43.67;10.30;;;;;;;11.55;100.00;102184.78;5070675;28;20529;-76
2021/01/02 10:58:34;;;;;;;46.50;9.60;;;;;;;12.02;100.00;102186.09;5070903;28;20183;-76
2021/01/02 11:01:00;;;;;;;44.93;9.03;;;;;;;12.16;100.00;102173.06;5070732;28;20796;-78
2021/01/02 11:03:25;;;;;;;50.00;10.40;;;;;;;11.88;100.00;102177.06;5070819;28;20184;-75
2021/01/02 11:05:51;;;;;;;49.23;10.60;;;;;;;11.81;100.00;102180.94;5052047;28;20196;-78
2021/01/02 11:08:16;;;;;;;47.03;9.27;;;;;;;11.70;100.00;102183.19;5070279;28;20188;-78
2021/01/02 11:10:43;;;;;;;50.43;9.40;;;;;;;11.54;100.00;102176.94;5069948;28;20547;-76
2021/01/02 11:13:08;;;;;;;50.73;9.20;;;;;;;11.34;100.00;102181.41;5073569;28;20217;-76
2021/01/02 11:15:34;;;;;;;50.50;8.40;;;;;;;12.47;100.00;102183.78;5074322;28;20497;-76
2021/01/02 11:17:59;;;;;;;47.40;9.90;;;;;;;13.92;100.00;102161.78;5074589;28;20238;-77
2021/01/02 11:20:25;;;;;;;48.73;9.13;;;;;;;14.68;100.00;102156.41;5056569;28;20172;-77
2021/01/02 11:22:50;;;;;;;48.83;10.80;;;;;;;14.11;100.00;102157.13;5073775;28;20188;-79
2021/01/02 11:25:16;;;;;;;49.17;10.53;;;;;;;13.47;100.00;102158.19;5071985;28;20647;-77